Time;durP1;ratioP1;P1;durP2;ratioP2;P2;SDS_P1;SDS_P2;PMS_P1;PMS_P2;Temp;Humidity;BMP_temperature;BMP_pressure;BME280_temperature;BME280_humidity;BME280_pressure;Samples;Min_cycle;Max_cycle;Signal;HPM_P1;HPM_P2
2023/01/10 00:00:08;;;;;;;;;;;4.90;99.90;;;;;;5013379;28;19925;-70
2023/01/10 00:02:34;;;;;;;;;;;4.90;99.90;;;;;;4975888;28;206811;-71
2023/01/10 00:04:59;;;;;;;;;;;4.80;99.90;;;;;;5006652;28;19932;-71
2023/01/10 00:07:25;;;;;;;;;;;4.90;99.90;;;;;;4979475;28;208839;-70
2023/01/10 00:09:51;;;;;;;;;;;4.90;99.90;;;;;;5005192;28;19921;-70
2023/01/10 00:15:02;;;;;;;;;;;4.90;99.90;;;;;;5023528;28;19921;-69
2023/01/10 00:17:27;;;;;;;;;;;4.90;99.90;;;;;;4962395;28;206340;-69
2023/01/10 00:19:53;;;;;;;;;;;5.00;99.90;;;;;;5022097;28;19925;-69
2023/01/10 00:22:23;;;;;;;;;;;5.10;99.90;;;;;;4982340;28;207178;-69
2023/01/10 00:24:50;;;;;;;;;;;5.10;99.90;;;;;;5004111;28;19932;-69
2023/01/10 00:27:21;;;;;;;;;;;5.10;99.90;;;;;;4974102;28;221700;-70
2023/01/10 00:29:48;;;;;;;;;;;5.10;99.90;;;;;;5008631;28;19928;-70
2023/01/10 00:32:14;;;;;;;;;;;5.20;99.90;;;;;;4984221;28;206801;-69
2023/01/10 00:34:40;;;;;;;;;;;5.20;99.90;;;;;;4977910;28;142362;-69
2023/01/10 00:37:06;;;;;;;;;;;5.20;99.90;;;;;;5039089;28;19928;-70
2023/01/10 00:39:32;;;;;;;;;;;5.20;99.90;;;;;;4970062;28;121167;-69
2023/01/10 00:44:45;;;;;;;;;;;5.20;99.90;;;;;;4950194;28;206447;-70
2023/01/10 00:47:12;;;;;;;;;;;5.30;99.90;;;;;;5022528;28;206491;-70
2023/01/10 00:49:38;;;;;;;;;;;5.30;99.90;;;;;;4974290;28;19929;-70
2023/01/10 00:52:04;;;;;;;;;;;5.30;99.90;;;;;;5034121;28;19929;-70
2023/01/10 00:54:30;;;;;;;;;;;5.40;99.90;;;;;;4963147;28;81842;-70
2023/01/10 00:56:56;;;;;;;;;;;5.40;99.90;;;;;;5019988;28;19929;-68
2023/01/10 00:59:22;;;;;;;;;;;5.40;99.90;;;;;;4968190;28;207666;-68
2023/01/10 01:01:48;;;;;;;;;;;5.40;99.90;;;;;;5030770;28;19921;-69
2023/01/10 01:04:14;;;;;;;;;;;5.40;99.90;;;;;;4942324;28;208441;-69
2023/01/10 01:06:42;;;;;;;;;;;5.40;99.90;;;;;;5032128;28;19960;-69
2023/01/10 01:09:08;;;;;;;;;;;5.40;99.90;;;;;;4942994;28;206938;-70
2023/01/10 01:11:34;;;;;;;;;;;5.40;99.90;;;;;;5030889;28;19920;-70
2023/01/10 01:14:00;;;;;;;;;;;5.40;99.90;;;;;;4946955;28;213105;-70
2023/01/10 01:16:26;;;;;;;;;;;5.40;99.90;;;;;;5011892;28;19921;-69
2023/01/10 01:18:52;;;;;;;;;;;5.40;99.90;;;;;;4959566;28;216499;-69
2023/01/10 01:21:17;;;;;;;;;;;5.40;99.90;;;;;;5026655;28;19925;-69
2023/01/10 01:23:43;;;;;;;;;;;5.30;99.90;;;;;;4939296;28;181311;-69
2023/01/10 01:26:09;;;;;;;;;;;5.30;99.90;;;;;;5021633;28;20436;-68
2023/01/10 01:28:36;;;;;;;;;;;5.20;99.90;;;;;;4958558;28;216039;-68
2023/01/10 01:31:06;;;;;;;;;;;5.20;99.90;;;;;;5026250;28;19929;-70
2023/01/10 01:33:32;;;;;;;;;;;5.20;99.90;;;;;;4976768;28;207144;-69
2023/01/10 01:35:57;;;;;;;;;;;5.20;99.90;;;;;;5014955;28;19940;-69
2023/01/10 01:38:23;;;;;;;;;;;5.10;99.90;;;;;;4968959;28;234277;-70
2023/01/10 01:40:49;;;;;;;;;;;5.10;99.90;;;;;;5034322;28;20368;-70
2023/01/10 01:43:23;;;;;;;;;;;5.10;99.90;;;;;;4984264;28;210085;-69
2023/01/10 01:45:49;;;;;;;;;;;5.10;99.90;;;;;;5031633;28;19927;-70
2023/01/10 01:48:20;;;;;;;;;;;5.10;99.90;;;;;;4972766;28;171945;-69
2023/01/10 01:50:52;;;;;;;;;;;5.10;99.90;;;;;;5024679;28;19955;-70
2023/01/10 01:53:28;;;;;;;;;;;5.20;99.90;;;;;;4970578;28;215980;-69
2023/01/10 01:55:56;;;;;;;;;;;5.20;99.90;;;;;;5026300;28;19964;-70
2023/01/10 01:58:25;;;;;;;;;;;5.10;99.90;;;;;;4967248;28;208773;-70
2023/01/10 02:00:51;;;;;;;;;;;5.10;99.90;;;;;;5021704;28;19943;-70
2023/01/10 02:03:17;;;;;;;;;;;5.10;99.90;;;;;;4956102;28;208282;-69
2023/01/10 02:05:43;;;;;;;;;;;5.10;99.90;;;;;;5022509;28;19929;-69
2023/01/10 02:08:09;;;;;;;;;;;5.10;99.90;;;;;;4966704;28;208013;-69
2023/01/10 02:10:40;;;;;;;;;;;5.10;99.90;;;;;;5010761;28;19925;-70
2023/01/10 02:13:08;;;;;;;;;;;5.20;99.90;;;;;;4975911;28;210362;-69
2023/01/10 02:15:34;;;;;;;;;;;5.20;99.90;;;;;;5008590;28;19925;-69
2023/01/10 02:18:01;;;;;;;;;;;5.20;99.90;;;;;;4980075;28;207207;-68
2023/01/10 02:20:27;;;;;;;;;;;5.30;99.90;;;;;;5019306;28;20306;-68
2023/01/10 02:22:53;;;;;;;;;;;5.40;99.90;;;;;;4978043;28;207544;-69
2023/01/10 02:25:22;;;;;;;;;;;5.30;99.90;;;;;;5031962;28;20008;-70
2023/01/10 02:28:06;;;;;;;;;;;5.40;99.90;;;;;;4961014;28;176694;-69
2023/01/10 02:30:39;;;;;;;;;;;5.30;99.90;;;;;;5017546;28;20414;-68
2023/01/10 02:33:05;;;;;;;;;;;5.30;99.90;;;;;;4978252;28;211539;-69
2023/01/10 02:35:50;;;;;;;;;;;5.20;99.90;;;;;;5028817;28;20014;-68
2023/01/10 02:38:28;;;;;;;;;;;5.20;99.90;;;;;;4961187;28;206344;-69
2023/01/10 02:41:04;;;;;;;;;;;5.10;99.90;;;;;;5020300;28;19928;-70
2023/01/10 02:43:33;;;;;;;;;;;5.10;99.90;;;;;;4980619;28;207063;-69
2023/01/10 02:46:13;;;;;;;;;;;5.10;99.90;;;;;;5034768;28;19921;-70
2023/01/10 02:48:39;;;;;;;;;;;5.20;99.90;;;;;;4977871;28;206882;-70
2023/01/10 02:51:22;;;;;;;;;;;5.20;99.90;;;;;;5014434;28;19925;-70
2023/01/10 02:53:51;;;;;;;;;;;5.20;99.90;;;;;;4962996;28;209860;-70
2023/01/10 02:56:23;;;;;;;;;;;5.20;99.90;;;;;;5034792;28;20437;-69
2023/01/10 02:58:52;;;;;;;;;;;5.30;99.90;;;;;;4957590;28;208852;-70
2023/01/10 03:01:37;;;;;;;;;;;5.30;99.90;;;;;;5029719;28;19931;-70
2023/01/10 03:04:11;;;;;;;;;;;5.30;99.90;;;;;;4945997;28;180178;-70
2023/01/10 03:06:47;;;;;;;;;;;5.40;99.90;;;;;;5034981;28;20401;-70
2023/01/10 03:09:13;;;;;;;;;;;5.40;99.90;;;;;;5008856;28;207502;-69
2023/01/10 03:11:41;;;;;;;;;;;5.50;99.90;;;;;;5045363;28;19924;-69
2023/01/10 03:14:22;;;;;;;;;;;5.50;99.90;;;;;;4970606;28;207277;-70
2023/01/10 03:16:51;;;;;;;;;;;5.60;99.90;;;;;;5019793;28;19929;-70
2023/01/10 03:19:20;;;;;;;;;;;5.60;99.90;;;;;;4957032;28;204960;-70
2023/01/10 03:21:47;;;;;;;;;;;5.60;99.90;;;;;;5032725;28;19935;-69
2023/01/10 03:24:16;;;;;;;;;;;5.60;99.90;;;;;;4958756;28;207194;-69
2023/01/10 03:26:52;;;;;;;;;;;5.60;99.90;;;;;;5031958;28;20309;-70
2023/01/10 03:29:24;;;;;;;;;;;5.60;99.90;;;;;;4941537;28;94049;-70
2023/01/10 03:31:52;;;;;;;;;;;5.60;99.90;;;;;;5037767;28;19928;-67
2023/01/10 03:34:19;;;;;;;;;;;5.70;99.90;;;;;;4984704;28;210420;-68
2023/01/10 03:36:49;;;;;;;;;;;5.70;99.90;;;;;;5032900;28;20839;-69
2023/01/10 03:39:15;;;;;;;;;;;5.70;99.90;;;;;;4970674;28;207496;-69
2023/01/10 03:41:46;;;;;;;;;;;5.70;99.90;;;;;;5034494;28;19947;-70
2023/01/10 03:47:08;;;;;;;;;;;5.70;99.90;;;;;;5032359;28;206970;-69
2023/01/10 03:49:40;;;;;;;;;;;5.70;99.90;;;;;;4978057;28;98747;-68
2023/01/10 03:52:07;;;;;;;;;;;5.70;99.90;;;;;;5022511;28;19924;-69
2023/01/10 03:54:33;;;;;;;;;;;5.60;99.90;;;;;;4957637;28;149589;-70
2023/01/10 03:56:59;;;;;;;;;;;5.70;99.90;;;;;;5021257;28;19925;-70
2023/01/10 03:59:26;;;;;;;;;;;5.70;99.90;;;;;;4965667;28;210068;-69
2023/01/10 04:01:52;;;;;;;;;;;5.70;99.90;;;;;;5037949;28;19933;-70
2023/01/10 04:04:18;;;;;;;;;;;5.80;99.90;;;;;;4944398;28;208680;-69
2023/01/10 04:06:44;;;;;;;;;;;5.80;99.90;;;;;;5035414;28;19925;-69
2023/01/10 04:09:10;;;;;;;;;;;5.70;99.90;;;;;;4960322;28;206803;-70
2023/01/10 04:11:36;;;;;;;;;;;5.80;99.90;;;;;;5016251;28;19932;-70
2023/01/10 04:14:02;;;;;;;;;;;5.80;99.90;;;;;;4963035;28;210929;-69
2023/01/10 04:16:28;;;;;;;;;;;5.70;99.90;;;;;;5031720;28;19932;-70
2023/01/10 04:18:54;;;;;;;;;;;5.70;99.90;;;;;;4965529;28;207740;-70
2023/01/10 04:21:20;;;;;;;;;;;5.70;99.90;;;;;;5038066;28;19925;-69
2023/01/10 04:23:46;;;;;;;;;;;5.70;99.90;;;;;;4952393;28;75560;-69
2023/01/10 04:26:12;;;;;;;;;;;5.60;99.90;;;;;;5014034;28;19925;-69
2023/01/10 04:28:38;;;;;;;;;;;5.60;99.90;;;;;;4971883;28;210039;-69
2023/01/10 04:31:04;;;;;;;;;;;5.70;99.90;;;;;;5009998;28;20425;-68
2023/01/10 04:33:31;;;;;;;;;;;5.70;99.90;;;;;;4973523;28;211042;-69
2023/01/10 04:35:57;;;;;;;;;;;5.70;99.90;;;;;;5028814;28;20339;-69
2023/01/10 04:38:23;;;;;;;;;;;5.70;99.90;;;;;;4969288;28;206597;-69
2023/01/10 04:40:52;;;;;;;;;;;5.70;99.90;;;;;;5021637;28;19924;-70
2023/01/10 04:43:18;;;;;;;;;;;5.80;99.90;;;;;;4975568;28;210043;-69
2023/01/10 04:45:44;;;;;;;;;;;5.80;99.90;;;;;;5010904;28;19921;-70
2023/01/10 04:48:10;;;;;;;;;;;5.80;99.90;;;;;;4970563;28;207309;-70
2023/01/10 04:50:36;;;;;;;;;;;5.80;99.90;;;;;;5029306;28;19929;-69
2023/01/10 04:53:02;;;;;;;;;;;5.80;99.90;;;;;;4983230;28;207051;-71
2023/01/10 04:55:28;;;;;;;;;;;5.80;99.90;;;;;;5011411;28;20391;-70
2023/01/10 04:57:54;;;;;;;;;;;5.80;99.90;;;;;;4975139;28;241806;-70
2023/01/10 05:00:20;;;;;;;;;;;5.80;99.90;;;;;;5021475;28;20348;-70
2023/01/10 05:02:46;;;;;;;;;;;5.80;99.90;;;;;;4965333;28;210177;-70
2023/01/10 05:05:12;;;;;;;;;;;5.80;99.90;;;;;;5008401;28;20333;-70
2023/01/10 05:07:38;;;;;;;;;;;5.80;99.90;;;;;;4953584;28;268824;-69
2023/01/10 05:10:05;;;;;;;;;;;5.80;99.90;;;;;;5022574;28;19925;-69
2023/01/10 05:12:31;;;;;;;;;;;5.90;99.90;;;;;;4984620;28;206876;-70
2023/01/10 05:14:57;;;;;;;;;;;5.90;99.90;;;;;;5027603;28;19921;-68
2023/01/10 05:17:23;;;;;;;;;;;5.90;99.90;;;;;;4980716;28;209456;-71
2023/01/10 05:19:49;;;;;;;;;;;5.90;99.90;;;;;;5035924;28;19921;-71
2023/01/10 05:22:15;;;;;;;;;;;5.90;99.90;;;;;;4986286;28;232377;-71
2023/01/10 05:24:41;;;;;;;;;;;5.90;99.90;;;;;;4988446;28;94249;-72
2023/01/10 05:27:07;;;;;;;;;;;5.90;99.90;;;;;;5034451;28;207690;-72
2023/01/10 05:29:33;;;;;;;;;;;5.90;99.90;;;;;;4962433;28;39986;-72
2023/01/10 05:31:59;;;;;;;;;;;5.90;99.90;;;;;;5046680;28;19921;-72
2023/01/10 05:34:25;;;;;;;;;;;5.90;99.90;;;;;;4952234;28;207466;-72
2023/01/10 05:36:51;;;;;;;;;;;5.90;99.90;;;;;;5045746;28;19999;-72
2023/01/10 05:39:17;;;;;;;;;;;5.90;99.90;;;;;;4980556;28;206350;-72
2023/01/10 05:41:43;;;;;;;;;;;5.90;99.90;;;;;;5039733;28;19920;-73
2023/01/10 05:44:09;;;;;;;;;;;5.90;99.90;;;;;;4971395;28;206656;-72
2023/01/10 05:46:35;;;;;;;;;;;5.90;99.90;;;;;;5045261;28;20052;-72
2023/01/10 05:49:01;;;;;;;;;;;6.00;99.90;;;;;;4930421;28;193661;-72
2023/01/10 05:51:27;;;;;;;;;;;6.00;99.90;;;;;;5019349;28;19931;-72
2023/01/10 05:53:53;;;;;;;;;;;6.00;99.90;;;;;;4954527;28;206712;-72
2023/01/10 05:56:19;;;;;;;;;;;5.90;99.90;;;;;;5032750;28;19928;-72
2023/01/10 05:58:46;;;;;;;;;;;5.90;99.90;;;;;;4971815;28;206853;-71
2023/01/10 06:01:12;;;;;;;;;;;5.90;99.90;;;;;;5032454;28;20310;-71
2023/01/10 06:03:38;;;;;;;;;;;5.90;99.90;;;;;;4968603;28;207853;-71
2023/01/10 06:06:04;;;;;;;;;;;5.90;99.90;;;;;;5026878;28;20414;-72
2023/01/10 06:08:30;;;;;;;;;;;5.90;99.90;;;;;;4964492;28;209257;-72
2023/01/10 06:10:56;;;;;;;;;;;5.90;99.90;;;;;;5025348;28;19928;-71
2023/01/10 06:13:22;;;;;;;;;;;5.90;99.90;;;;;;4971941;28;206019;-71
2023/01/10 06:15:48;;;;;;;;;;;5.90;99.90;;;;;;5028203;28;19936;-71
2023/01/10 06:18:14;;;;;;;;;;;5.80;99.90;;;;;;4974755;28;206997;-71
2023/01/10 06:20:41;;;;;;;;;;;5.80;99.90;;;;;;5026778;28;20297;-71
2023/01/10 06:23:07;;;;;;;;;;;5.80;99.90;;;;;;4978492;28;207308;-71
2023/01/10 06:25:35;;;;;;;;;;;5.80;99.90;;;;;;5027873;28;19936;-71
2023/01/10 06:28:02;;;;;;;;;;;5.70;99.90;;;;;;4977924;28;205837;-70
2023/01/10 06:30:28;;;;;;;;;;;5.70;99.90;;;;;;5022900;28;19932;-70
2023/01/10 06:32:58;;;;;;;;;;;5.60;99.90;;;;;;4980194;28;210559;-70
2023/01/10 06:35:24;;;;;;;;;;;5.60;99.90;;;;;;5001403;28;19925;-69
2023/01/10 06:37:50;;;;;;;;;;;5.60;99.90;;;;;;4975044;28;206930;-70
2023/01/10 06:40:16;;;;;;;;;;;5.60;99.90;;;;;;5005583;28;19935;-70
2023/01/10 06:42:42;;;;;;;;;;;5.50;99.90;;;;;;4954889;28;206296;-70
2023/01/10 06:45:09;;;;;;;;;;;5.50;99.90;;;;;;5004901;28;20214;-70
2023/01/10 06:47:35;;;;;;;;;;;5.50;99.90;;;;;;4975167;28;230432;-70
2023/01/10 06:50:01;;;;;;;;;;;5.50;99.90;;;;;;5016926;28;19929;-69
2023/01/10 06:52:27;;;;;;;;;;;5.60;99.90;;;;;;4972469;28;207646;-69
2023/01/10 06:54:53;;;;;;;;;;;5.50;99.90;;;;;;5005395;28;20703;-71
2023/01/10 06:57:18;;;;;;;;;;;5.50;99.90;;;;;;4982760;28;211631;-70
2023/01/10 06:59:44;;;;;;;;;;;5.60;99.90;;;;;;5025953;28;19924;-71
2023/01/10 07:02:10;;;;;;;;;;;5.60;99.90;;;;;;5018945;28;207476;-71
2023/01/10 07:04:36;;;;;;;;;;;5.70;99.90;;;;;;4931368;28;136400;-69
2023/01/10 07:07:02;;;;;;;;;;;5.70;99.90;;;;;;5035341;28;19921;-72
2023/01/10 07:09:28;;;;;;;;;;;5.80;99.90;;;;;;4950584;28;225669;-71
2023/01/10 07:11:54;;;;;;;;;;;5.80;99.90;;;;;;5037583;28;20326;-71
2023/01/10 07:14:20;;;;;;;;;;;5.80;99.90;;;;;;4974969;28;208791;-70
2023/01/10 07:16:46;;;;;;;;;;;5.80;99.90;;;;;;5015185;28;19925;-69
2023/01/10 07:19:12;;;;;;;;;;;5.90;99.90;;;;;;4978636;28;207682;-70
2023/01/10 07:21:38;;;;;;;;;;;5.90;99.90;;;;;;5036719;28;20378;-69
2023/01/10 07:24:04;;;;;;;;;;;5.90;99.90;;;;;;4966467;28;208758;-69
2023/01/10 07:26:30;;;;;;;;;;;5.90;99.90;;;;;;5037640;28;19921;-69
2023/01/10 07:28:56;;;;;;;;;;;5.90;99.90;;;;;;4958980;28;193590;-70
2023/01/10 07:31:23;;;;;;;;;;;5.90;99.90;;;;;;5032133;28;20286;-72
2023/01/10 07:33:52;;;;;;;;;;;5.90;99.90;;;;;;4952877;28;205517;-70
2023/01/10 07:36:18;;;;;;;;;;;5.90;99.90;;;;;;5013000;28;19921;-69
2023/01/10 07:38:44;;;;;;;;;;;5.80;99.90;;;;;;4962190;28;211178;-71
2023/01/10 07:41:10;;;;;;;;;;;5.80;99.90;;;;;;5013696;28;19940;-70
2023/01/10 07:43:36;;;;;;;;;;;5.90;99.90;;;;;;4953104;28;214983;-69
2023/01/10 07:46:03;;;;;;;;;;;5.90;99.90;;;;;;5012145;28;19928;-70
2023/01/10 07:48:29;;;;;;;;;;;5.80;99.90;;;;;;4973246;28;217872;-69
2023/01/10 07:50:56;;;;;;;;;;;5.80;99.90;;;;;;5034143;28;19924;-70
2023/01/10 07:53:22;;;;;;;;;;;5.90;99.90;;;;;;4957970;28;204222;-68
2023/01/10 07:55:48;;;;;;;;;;;5.90;99.90;;;;;;5024384;28;19925;-70
2023/01/10 07:58:13;;;;;;;;;;;5.90;99.90;;;;;;4969613;28;242451;-71
2023/01/10 08:00:39;;;;;;;;;;;6.00;99.90;;;;;;5029419;28;19925;-68
2023/01/10 08:03:05;;;;;;;;;;;5.90;99.90;;;;;;4978190;28;215635;-70
2023/01/10 08:05:31;;;;;;;;;;;6.00;99.90;;;;;;5015308;28;19932;-69
2023/01/10 08:08:02;;;;;;;;;;;6.00;99.90;;;;;;4977456;28;218398;-70
2023/01/10 08:10:28;;;;;;;;;;;6.00;99.90;;;;;;5026865;28;20306;-70
2023/01/10 08:12:54;;;;;;;;;;;5.90;99.90;;;;;;4974023;28;212481;-69
2023/01/10 08:15:20;;;;;;;;;;;5.90;99.90;;;;;;5032211;28;20584;-69
2023/01/10 08:17:46;;;;;;;;;;;5.90;99.90;;;;;;4973180;28;210039;-68
2023/01/10 08:20:12;;;;;;;;;;;5.80;99.90;;;;;;5024293;28;19924;-68
2023/01/10 08:22:38;;;;;;;;;;;5.80;99.90;;;;;;4968982;28;211550;-68
2023/01/10 08:25:04;;;;;;;;;;;5.80;99.90;;;;;;5000382;28;19921;-68
2023/01/10 08:27:30;;;;;;;;;;;5.70;99.90;;;;;;4990046;28;209731;-69
2023/01/10 08:29:56;;;;;;;;;;;5.70;99.90;;;;;;5019278;28;19927;-69
2023/01/10 08:32:21;;;;;;;;;;;5.60;99.90;;;;;;4980821;28;210019;-69
2023/01/10 08:34:47;;;;;;;;;;;5.60;99.90;;;;;;5009134;28;19929;-69
2023/01/10 08:37:13;;;;;;;;;;;5.60;99.90;;;;;;5017638;28;207188;-69
2023/01/10 08:39:39;;;;;;;;;;;5.70;99.90;;;;;;5001549;28;213762;-69
2023/01/10 08:42:05;;;;;;;;;;;5.70;99.90;;;;;;5035761;28;20386;-69
2023/01/10 08:44:31;;;;;;;;;;;5.70;99.90;;;;;;4976991;28;205937;-68
2023/01/10 08:46:57;;;;;;;;;;;5.80;99.90;;;;;;5043010;28;20291;-68
2023/01/10 08:49:23;;;;;;;;;;;5.80;99.90;;;;;;4973317;28;211723;-68
2023/01/10 08:51:49;;;;;;;;;;;5.80;99.90;;;;;;5035535;28;19921;-69
2023/01/10 08:54:15;;;;;;;;;;;5.90;99.90;;;;;;4962757;28;206468;-69
2023/01/10 08:56:40;;;;;;;;;;;6.00;99.90;;;;;;5028395;28;19928;-70
2023/01/10 08:59:07;;;;;;;;;;;6.00;99.90;;;;;;4984457;28;207323;-70
2023/01/10 09:01:33;;;;;;;;;;;6.10;99.90;;;;;;5035524;28;19921;-70
2023/01/10 09:03:59;;;;;;;;;;;6.10;99.90;;;;;;4951548;28;205508;-70
2023/01/10 09:06:25;;;;;;;;;;;6.10;99.90;;;;;;5016983;28;19925;-70
2023/01/10 09:08:51;;;;;;;;;;;6.10;99.90;;;;;;4977444;28;207188;-69
2023/01/10 09:11:17;;;;;;;;;;;6.10;99.90;;;;;;5033917;28;19925;-69
2023/01/10 09:13:42;;;;;;;;;;;6.10;99.90;;;;;;4944237;28;186449;-68
2023/01/10 09:16:09;;;;;;;;;;;6.10;99.90;;;;;;5030836;28;19940;-69
2023/01/10 09:18:34;;;;;;;;;;;6.10;99.90;;;;;;4991817;28;207221;-67
2023/01/10 09:21:02;;;;;;;;;;;6.10;99.90;;;;;;5052657;28;19925;-67
2023/01/10 09:23:27;;;;;;;;;;;6.10;99.90;;;;;;5006150;28;206427;-67
2023/01/10 09:25:54;;;;;;;;;;;6.10;99.90;;;;;;5061084;28;20009;-68
2023/01/10 09:28:21;;;;;;;;;;;6.20;99.90;;;;;;4988452;28;214900;-68
2023/01/10 09:30:47;;;;;;;;;;;6.20;99.90;;;;;;5004078;28;19929;-69
2023/01/10 09:33:13;;;;;;;;;;;6.20;99.90;;;;;;4961989;28;233895;-69
2023/01/10 09:35:39;;;;;;;;;;;6.20;99.90;;;;;;5002498;28;19925;-68
2023/01/10 09:38:06;;;;;;;;;;;6.30;99.90;;;;;;4950487;28;207602;-69
2023/01/10 09:40:38;;;;;;;;;;;6.30;99.90;;;;;;5018200;28;20424;-69
2023/01/10 09:43:10;;;;;;;;;;;6.30;99.90;;;;;;4963710;28;211442;-69
2023/01/10 09:45:36;;;;;;;;;;;6.30;99.90;;;;;;5020863;28;19940;-70
2023/01/10 09:48:04;;;;;;;;;;;6.30;99.90;;;;;;4969127;28;208906;-69
2023/01/10 09:50:42;;;;;;;;;;;6.30;99.90;;;;;;4999193;28;20340;-69
2023/01/10 09:53:11;;;;;;;;;;;6.40;99.90;;;;;;4988024;28;207322;-70
2023/01/10 09:55:37;;;;;;;;;;;6.50;99.90;;;;;;5038636;28;19931;-70
2023/01/10 09:58:06;;;;;;;;;;;6.50;99.90;;;;;;4968639;28;205451;-70
2023/01/10 10:00:52;;;;;;;;;;;6.50;99.90;;;;;;5001932;28;19925;-70
2023/01/10 10:03:26;;;;;;;;;;;6.60;99.90;;;;;;4954088;28;209017;-70
2023/01/10 10:05:52;;;;;;;;;;;6.70;99.90;;;;;;5032269;28;19932;-69
2023/01/10 10:08:19;;;;;;;;;;;6.70;99.90;;;;;;4985222;28;205932;-69
2023/01/10 10:10:50;;;;;;;;;;;6.70;99.90;;;;;;5029042;28;20386;-70
2023/01/10 10:13:31;;;;;;;;;;;6.70;99.90;;;;;;4950879;28;173329;-69
2023/01/10 10:16:06;;;;;;;;;;;6.80;99.90;;;;;;5005636;28;19936;-69
2023/01/10 10:18:50;;;;;;;;;;;6.80;99.90;;;;;;4978199;28;209279;-70
2023/01/10 10:21:22;;;;;;;;;;;6.80;99.90;;;;;;5037846;28;19932;-69
2023/01/10 10:24:23;;;;;;;;;;;6.90;99.90;;;;;;4956759;28;238608;-69
2023/01/10 10:26:56;;;;;;;;;;;6.90;99.90;;;;;;5008741;28;19928;-69
2023/01/10 10:29:37;;;;;;;;;;;6.90;99.90;;;;;;4949329;28;209536;-69
2023/01/10 10:32:07;;;;;;;;;;;7.00;99.90;;;;;;5004272;28;19926;-69
2023/01/10 10:34:42;;;;;;;;;;;7.00;99.90;;;;;;4928029;28;218346;-69
2023/01/10 10:37:21;;;;;;;;;;;7.00;99.90;;;;;;4990620;28;102819;-70
2023/01/10 10:39:49;;;;;;;;;;;7.00;99.90;;;;;;4948958;28;48056;-69
2023/01/10 10:42:16;;;;;;;;;;;7.00;99.90;;;;;;4955429;28;206621;-69
2023/01/10 10:44:51;;;;;;;;;;;7.00;99.90;;;;;;4983318;28;19926;-70
2023/01/10 10:47:18;;;;;;;;;;;7.00;99.90;;;;;;4945934;28;205600;-68
2023/01/10 10:49:59;;;;;;;;;;;7.00;99.90;;;;;;4998284;28;19926;-71
2023/01/10 10:52:31;;;;;;;;;;;7.00;99.90;;;;;;4956428;28;206534;-68
2023/01/10 10:54:57;;;;;;;;;;;7.10;99.90;;;;;;4989286;28;19925;-69
2023/01/10 10:57:25;;;;;;;;;;;7.10;99.90;;;;;;4955110;28;207840;-70
2023/01/10 10:59:51;;;;;;;;;;;7.10;99.90;;;;;;4989556;28;19921;-70
2023/01/10 11:02:22;;;;;;;;;;;7.10;99.90;;;;;;4996624;28;210323;-70
2023/01/10 11:04:50;;;;;;;;;;;7.20;99.90;;;;;;5018371;28;19925;-70
2023/01/10 11:07:16;;;;;;;;;;;7.20;99.90;;;;;;5001748;28;212022;-68
2023/01/10 11:10:33;;;;;;;;;;;7.10;99.90;;;;;;5012898;28;19944;-70
2023/01/10 11:12:37;;;;;;;;;;;7.20;99.90;;;;;;4973687;28;207079;-69
2023/01/10 11:15:03;;;;;;;;;;;7.20;99.90;;;;;;4996902;28;19925;-70
2023/01/10 11:17:30;;;;;;;;;;;7.20;99.90;;;;;;4986854;28;207141;-70
2023/01/10 11:19:59;;;;;;;;;;;7.20;99.90;;;;;;5014642;28;19935;-70
2023/01/10 11:22:27;;;;;;;;;;;7.20;99.90;;;;;;4969182;28;206478;-70
2023/01/10 11:24:55;;;;;;;;;;;7.20;99.90;;;;;;5017815;28;19940;-69
2023/01/10 11:27:29;;;;;;;;;;;7.20;99.90;;;;;;4981814;28;211449;-69
2023/01/10 11:29:59;;;;;;;;;;;7.10;99.90;;;;;;5042685;28;19936;-69
2023/01/10 11:32:36;;;;;;;;;;;7.10;99.90;;;;;;4986409;28;209566;-69
2023/01/10 11:35:06;;;;;;;;;;;7.10;99.90;;;;;;5008612;28;19932;-68
2023/01/10 11:37:33;;;;;;;;;;;7.20;99.90;;;;;;4979391;28;213876;-69
2023/01/10 11:40:08;;;;;;;;;;;7.10;99.90;;;;;;5033195;28;19921;-69
2023/01/10 11:42:34;;;;;;;;;;;7.10;99.90;;;;;;4990387;28;207681;-69
2023/01/10 11:45:18;;;;;;;;;;;7.10;99.90;;;;;;5029691;28;19943;-69
2023/01/10 11:47:55;;;;;;;;;;;7.10;99.90;;;;;;4983803;28;207455;-69
2023/01/10 11:50:26;;;;;;;;;;;7.10;99.90;;;;;;5028463;28;19940;-69
2023/01/10 11:52:52;;;;;;;;;;;7.10;99.90;;;;;;4977430;28;210532;-69
2023/01/10 11:55:19;;;;;;;;;;;7.10;99.90;;;;;;5030150;28;19945;-70
2023/01/10 11:57:53;;;;;;;;;;;7.00;99.90;;;;;;4975276;28;206819;-69
2023/01/10 12:00:19;;;;;;;;;;;7.00;99.90;;;;;;5028757;28;19928;-69
2023/01/10 12:02:46;;;;;;;;;;;7.00;99.90;;;;;;4967633;28;206793;-69
2023/01/10 12:05:22;;;;;;;;;;;7.00;99.90;;;;;;5025975;28;19936;-69
2023/01/10 12:07:58;;;;;;;;;;;7.00;99.90;;;;;;4983853;28;207509;-68
2023/01/10 12:10:26;;;;;;;;;;;7.00;99.90;;;;;;5034376;28;20599;-69
2023/01/10 12:12:56;;;;;;;;;;;6.90;99.90;;;;;;4982207;28;207624;-68
2023/01/10 12:15:25;;;;;;;;;;;6.90;99.90;;;;;;5018749;28;19928;-69
2023/01/10 12:17:54;;;;;;;;;;;6.90;99.90;;;;;;4975021;28;209445;-69
2023/01/10 12:20:20;;;;;;;;;;;6.90;99.90;;;;;;5027688;28;19948;-69
2023/01/10 12:22:50;;;;;;;;;;;6.90;99.90;;;;;;4977265;28;210414;-68
2023/01/10 12:25:18;;;;;;;;;;;6.80;99.90;;;;;;5030116;28;19929;-70
2023/01/10 12:27:48;;;;;;;;;;;6.80;99.90;;;;;;4974906;28;178557;-69
2023/01/10 12:30:17;;;;;;;;;;;6.90;99.90;;;;;;5034984;28;20558;-68
2023/01/10 12:32:46;;;;;;;;;;;6.80;99.90;;;;;;4969159;28;208326;-67
2023/01/10 12:35:18;;;;;;;;;;;6.80;99.90;;;;;;5020313;28;19925;-68
2023/01/10 12:37:47;;;;;;;;;;;6.90;99.90;;;;;;4993159;28;209073;-69
2023/01/10 12:40:18;;;;;;;;;;;6.80;99.90;;;;;;5016311;28;19925;-69
2023/01/10 12:45:51;;;;;;;;;;;6.80;99.90;;;;;;5036708;28;19925;-70
2023/01/10 12:48:20;;;;;;;;;;;6.80;99.90;;;;;;4981979;28;207655;-70
2023/01/10 12:50:52;;;;;;;;;;;6.80;99.90;;;;;;5035445;28;20290;-68
2023/01/10 12:53:18;;;;;;;;;;;6.80;99.90;;;;;;4975210;28;209622;-69
2023/01/10 12:55:44;;;;;;;;;;;6.80;99.90;;;;;;5032045;28;19925;-70
2023/01/10 12:58:30;;;;;;;;;;;6.80;99.90;;;;;;4976450;28;207344;-69
2023/01/10 13:00:58;;;;;;;;;;;6.80;99.90;;;;;;5031524;28;19921;-69
2023/01/10 13:03:26;;;;;;;;;;;6.80;99.90;;;;;;4934356;28;70843;-69
2023/01/10 13:05:53;;;;;;;;;;;6.80;99.90;;;;;;5013462;28;19929;-70
2023/01/10 13:08:22;;;;;;;;;;;6.80;99.90;;;;;;4982934;28;218427;-70
2023/01/10 13:10:49;;;;;;;;;;;6.80;99.90;;;;;;5029288;28;19952;-69
2023/01/10 13:13:21;;;;;;;;;;;6.80;99.90;;;;;;4952042;28;177351;-71
2023/01/10 13:15:49;;;;;;;;;;;6.80;99.90;;;;;;5024887;28;19921;-69
2023/01/10 13:18:23;;;;;;;;;;;6.80;99.90;;;;;;4975079;28;207510;-69
2023/01/10 13:21:00;;;;;;;;;;;6.70;99.90;;;;;;5032243;28;19925;-70
2023/01/10 13:23:29;;;;;;;;;;;6.80;99.90;;;;;;4971121;28;211980;-71
2023/01/10 13:25:56;;;;;;;;;;;6.70;99.90;;;;;;5037600;28;19921;-70
2023/01/10 13:28:24;;;;;;;;;;;6.70;99.90;;;;;;4955321;28;210943;-68
2023/01/10 13:30:52;;;;;;;;;;;6.70;99.90;;;;;;5023056;28;20262;-69
2023/01/10 13:33:39;;;;;;;;;;;6.70;99.90;;;;;;4976771;28;71175;-68
2023/01/10 13:36:16;;;;;;;;;;;6.70;99.90;;;;;;5017094;28;19924;-70
2023/01/10 13:38:59;;;;;;;;;;;6.70;99.90;;;;;;4963715;28;213245;-70
2023/01/10 13:44:49;;;;;;;;;;;6.60;99.90;;;;;;4986478;28;206034;-69
2023/01/10 13:47:35;;;;;;;;;;;6.60;99.90;;;;;;5002119;28;207820;-70
2023/01/10 13:50:21;;;;;;;;;;;6.50;99.90;;;;;;4999138;28;19929;-69
2023/01/10 13:52:51;;;;;;;;;;;6.50;99.90;;;;;;4986736;28;216571;-69
2023/01/10 13:55:35;;;;;;;;;;;6.50;99.90;;;;;;5029576;28;20347;-70
2023/01/10 13:58:14;;;;;;;;;;;6.50;99.90;;;;;;4976124;28;207407;-69
2023/01/10 14:03:45;;;;;;;;;;;6.40;99.90;;;;;;4949771;28;205330;-70
2023/01/10 14:06:26;;;;;;;;;;;6.40;99.90;;;;;;5028398;28;19935;-70
2023/01/10 14:08:53;;;;;;;;;;;6.40;99.90;;;;;;4963912;28;217318;-69
2023/01/10 14:11:21;;;;;;;;;;;6.30;99.90;;;;;;5039848;28;19940;-70
2023/01/10 14:13:54;;;;;;;;;;;6.40;99.90;;;;;;4965078;28;207874;-69
2023/01/10 14:16:34;;;;;;;;;;;6.30;99.90;;;;;;5035430;28;19927;-70
2023/01/10 14:19:02;;;;;;;;;;;6.30;99.90;;;;;;4957235;28;185085;-69
2023/01/10 14:21:28;;;;;;;;;;;6.30;99.90;;;;;;5021018;28;19921;-71
2023/01/10 14:23:56;;;;;;;;;;;6.30;99.90;;;;;;4964339;28;208850;-69
2023/01/10 14:26:28;;;;;;;;;;;6.30;99.90;;;;;;5018875;28;19939;-69
2023/01/10 14:28:54;;;;;;;;;;;6.30;99.90;;;;;;4966573;28;209580;-69
2023/01/10 14:31:21;;;;;;;;;;;6.30;99.90;;;;;;5029709;28;19925;-69
2023/01/10 14:33:48;;;;;;;;;;;6.40;99.90;;;;;;4987446;28;210503;-70
2023/01/10 14:36:15;;;;;;;;;;;6.30;99.90;;;;;;5032313;28;19940;-69
2023/01/10 14:38:43;;;;;;;;;;;6.40;99.90;;;;;;4949013;28;210898;-70
2023/01/10 14:41:18;;;;;;;;;;;6.40;99.90;;;;;;5031749;28;19921;-70
2023/01/10 14:43:46;;;;;;;;;;;6.40;99.90;;;;;;4959467;28;209682;-69
2023/01/10 14:46:24;;;;;;;;;;;6.40;99.90;;;;;;5026541;28;19928;-69
2023/01/10 14:48:52;;;;;;;;;;;6.40;99.90;;;;;;4972571;28;207307;-70